KLHB/LHB METAR and TAF weather

Enter ICAO airport designator
Station Type Date Time Source
KLHB METAR 2022/12/01 00:35 UTC NOAA

KLHB 010035Z AUTO 01004KT 10SM CLR 09/M02 A3038 RMK AO2 T00911021


Station Type Date Time Source
KLHB Decoded METAR 2022/12/01 00:35 UTC NOAA

Hearne, Hearne Municipal Airport, TX, United States (KLHB) 30-52-18N 096-37-20W
Nov 30, 2022 - 07:35 PM EST / 2022.12.01 0035 UTC
Wind: from the N (010 degrees) at 5 MPH (4 KT):0
Visibility: 10 mile(s):0
Sky conditions: clear
Temperature: 48.4 F (9.1 C)
Dew Point: 28.2 F (-2.1 C)
Relative Humidity: 45%
Pressure (altimeter): 30.38 in. Hg (1028 hPa)
ob: KLHB 010035Z AUTO 01004KT 10SM CLR 09/M02 A3038 RMK AO2 T00911021
cycle: 0

Station Type Date Time Source
KLHB TAF UTC NOAA

Error!

Example: see airport list